Terminal Aerodrome Forecast
Issued by NWS

Home | Current Version | Previous Version | Text Only | Print | Product List | Glossary On
Versions: 1 2 3 4 5 6 7 8 9 10 11 12 13 14 15 16 17 18
000
FTUS45 KTFX 191739
TAFHVR
TAF
KHVR 191739Z 1918/2018 VRB03KT 6SM -SHRASN BR OVC060
     FM192200 26007KT P6SM SCT100
     FM201200 24010KT P6SM FEW150=

USA.gov is the U.S. government's official web portal to all federal, state and local government web resources and services.